Time;durP1;ratioP1;P1;durP2;ratioP2;P2;SDS_P1;SDS_P2;PMS_P1;PMS_P2;Temp;Humidity;BMP_temperature;BMP_pressure;BME280_temperature;BME280_humidity;BME280_pressure;Samples;Min_cycle;Max_cycle;Signal;HPM_P1;HPM_P2
2022/07/11 00:02:04;;;;;;;;;;;;;;;22.00;48.04;101522.81;4921067;29;4472;-60
2022/07/11 00:04:30;;;;;;;;;;;;;;;21.99;47.93;101521.31;4921358;29;4341;-60
2022/07/11 00:06:57;;;;;;;;;;;;;;;22.00;48.09;101524.94;4918905;29;4219;-60
2022/07/11 00:09:23;;;;;;;;;;;;;;;21.98;48.37;101524.84;4917412;29;4277;-61
2022/07/11 00:11:50;;;;;;;;;;;;;;;21.99;48.37;101524.22;4920532;29;4282;-60
2022/07/11 00:14:16;;;;;;;;;;;;;;;21.99;48.12;101523.44;4916453;29;4348;-61
2022/07/11 00:16:43;;;;;;;;;;;;;;;21.98;48.43;101525.59;4922129;29;4388;-60
2022/07/11 00:19:09;;;;;;;;;;;;;;;21.97;48.40;101518.34;4919243;29;4141;-60
2022/07/11 00:21:36;;;;;;;;;;;;;;;21.97;48.18;101512.56;4920468;29;4379;-60
2022/07/11 00:24:02;;;;;;;;;;;;;;;21.97;48.19;101515.44;4919653;29;4410;-60
2022/07/11 00:26:29;;;;;;;;;;;;;;;21.98;48.15;101519.81;4916738;29;4415;-61
2022/07/11 00:28:55;;;;;;;;;;;;;;;21.97;48.19;101518.34;4917020;29;4382;-61
2022/07/11 00:31:22;;;;;;;;;;;;;;;21.96;48.31;101516.81;4919142;29;4268;-60
2022/07/11 00:33:48;;;;;;;;;;;;;;;21.96;48.32;101522.59;4919637;29;5625;-60
2022/07/11 00:36:15;;;;;;;;;;;;;;;21.95;48.27;101510.31;4920244;29;5450;-60
2022/07/11 00:38:41;;;;;;;;;;;;;;;21.96;48.13;101508.19;4917705;29;4581;-60
2022/07/11 00:41:07;;;;;;;;;;;;;;;21.96;48.26;101519.72;4920876;29;6467;-60
2022/07/11 00:43:35;;;;;;;;;;;;;;;21.94;48.50;101514.59;4918790;29;5884;-60
2022/07/11 00:46:01;;;;;;;;;;;;;;;21.95;48.44;101510.31;4919456;29;4201;-60
2022/07/11 00:48:27;;;;;;;;;;;;;;;21.95;48.31;101515.34;4918181;29;4643;-60
2022/07/11 00:50:54;;;;;;;;;;;;;;;21.93;48.48;101518.88;4918625;29;5571;-60
2022/07/11 00:53:20;;;;;;;;;;;;;;;21.95;48.29;101515.34;4906075;29;5489;-61
2022/07/11 00:55:47;;;;;;;;;;;;;;;21.94;48.57;101516.72;4920154;29;5748;-60
2022/07/11 00:58:13;;;;;;;;;;;;;;;21.93;48.26;101515.25;4912395;29;4231;-60
2022/07/11 01:00:39;;;;;;;;;;;;;;;21.92;48.60;101510.84;4921816;29;4196;-60
2022/07/11 01:03:06;;;;;;;;;;;;;;;21.92;48.48;101517.38;4918223;29;4235;-60
2022/07/11 01:05:32;;;;;;;;;;;;;;;21.91;48.56;101515.13;4916981;29;4293;-60
2022/07/11 01:07:59;;;;;;;;;;;;;;;21.92;48.44;101525.25;4915022;29;4216;-61
2022/07/11 01:10:26;;;;;;;;;;;;;;;21.90;48.47;101508.63;4919416;29;4411;-60
2022/07/11 01:12:52;;;;;;;;;;;;;;;21.90;48.47;101513.66;4919119;29;4181;-60
2022/07/11 01:15:18;;;;;;;;;;;;;;;21.91;48.47;101512.25;4920312;29;4303;-60
2022/07/11 01:17:45;;;;;;;;;;;;;;;21.94;48.39;101508.84;4919543;29;4171;-60
2022/07/11 01:20:11;;;;;;;;;;;;;;;21.95;48.36;101510.31;4916660;29;5375;-60
2022/07/11 01:22:44;;;;;;;;;;;;;;;21.91;48.69;101512.25;4920358;29;5434;-60
2022/07/11 01:25:29;;;;;;;;;;;;;;;21.89;48.39;101509.25;4919047;29;5723;-60
2022/07/11 01:27:57;;;;;;;;;;;;;;;21.88;48.55;101505.63;4915981;29;5437;-60
2022/07/11 01:30:23;;;;;;;;;;;;;;;21.95;48.41;101503.81;4915318;29;5141;-60
2022/07/11 01:32:50;;;;;;;;;;;;;;;21.98;48.39;101510.41;4915147;29;4249;-60
2022/07/11 01:35:17;;;;;;;;;;;;;;;21.97;48.34;101512.56;4917342;29;4648;-60
2022/07/11 01:37:43;;;;;;;;;;;;;;;21.95;48.63;101504.56;4917327;29;4473;-60
2022/07/11 01:40:10;;;;;;;;;;;;;;;21.95;48.40;101504.56;4915741;29;4105;-60
2022/07/11 01:42:36;;;;;;;;;;;;;;;21.96;48.56;101511.81;4919462;29;4147;-60
2022/07/11 01:45:02;;;;;;;;;;;;;;;21.95;48.28;101509.59;4917838;29;4260;-60
2022/07/11 01:47:29;;;;;;;;;;;;;;;21.94;48.40;101508.84;4915990;29;4136;-60
2022/07/11 01:49:55;;;;;;;;;;;;;;;21.95;48.55;101509.59;4914956;29;4441;-60
2022/07/11 01:52:21;;;;;;;;;;;;;;;21.96;48.41;101519.72;4916515;29;4545;-60
2022/07/11 01:54:48;;;;;;;;;;;;;;;21.96;48.53;101511.06;4918273;29;5561;-61
2022/07/11 01:57:14;;;;;;;;;;;;;;;21.95;48.48;101512.47;4918697;29;4206;-60
2022/07/11 01:59:41;;;;;;;;;;;;;;;21.87;48.61;101515.66;4918221;29;4273;-61
2022/07/11 02:02:07;;;;;;;;;;;;;;;21.94;48.70;101513.84;4916506;29;4296;-60
2022/07/11 02:04:34;;;;;;;;;;;;;;;21.94;48.64;101510.97;4920153;29;4386;-60
2022/07/11 02:07:00;;;;;;;;;;;;;;;21.89;48.73;101520.81;4917077;29;4193;-60
2022/07/11 02:09:26;;;;;;;;;;;;;;;21.86;48.65;101510.56;4915508;29;4149;-60
2022/07/11 02:11:53;;;;;;;;;;;;;;;21.85;48.88;101523.47;4917195;29;4224;-60
2022/07/11 02:14:19;;;;;;;;;;;;;;;21.82;48.78;101507.47;4919633;29;4615;-60
2022/07/11 02:16:45;;;;;;;;;;;;;;;21.82;48.66;101508.22;4913867;29;4300;-61
2022/07/11 02:19:12;;;;;;;;;;;;;;;21.81;48.79;101511.75;4913617;29;4355;-60
2022/07/11 02:21:39;;;;;;;;;;;;;;;21.90;48.84;101513.66;4918067;29;4278;-60
2022/07/11 02:24:05;;;;;;;;;;;;;;;21.93;48.51;101521.00;4915133;29;4259;-61
2022/07/11 02:26:31;;;;;;;;;;;;;;;21.92;48.50;101522.38;4918085;29;4629;-60
2022/07/11 02:28:58;;;;;;;;;;;;;;;21.90;48.54;101525.94;4918034;29;5636;-60
2022/07/11 02:31:24;;;;;;;;;;;;;;;21.92;48.48;101522.38;4916950;29;5466;-61
2022/07/11 02:33:50;;;;;;;;;;;;;;;21.90;48.35;101520.16;4919614;29;4205;-60
2022/07/11 02:36:17;;;;;;;;;;;;;;;21.91;48.48;101520.91;4914772;29;4297;-60
2022/07/11 02:38:43;;;;;;;;;;;;;;;21.90;48.47;101525.19;4913866;29;4632;-60
2022/07/11 02:41:10;;;;;;;;;;;;;;;21.88;48.59;101525.81;4915412;29;4233;-60
2022/07/11 02:43:36;;;;;;;;;;;;;;;21.90;48.74;101530.97;4916173;29;4139;-60
2022/07/11 02:46:02;;;;;;;;;;;;;;;21.88;48.81;101528.72;4915527;29;4336;-60
2022/07/11 02:48:29;;;;;;;;;;;;;;;21.89;48.57;101526.56;4920036;29;4208;-60
2022/07/11 02:50:55;;;;;;;;;;;;;;;21.89;48.67;101524.41;4914313;29;4528;-60
2022/07/11 02:53:22;;;;;;;;;;;;;;;21.89;48.71;101529.44;4916346;29;4593;-60
2022/07/11 02:55:48;;;;;;;;;;;;;;;21.89;48.71;101535.22;4915978;29;4961;-60
2022/07/11 02:58:14;;;;;;;;;;;;;;;21.88;48.58;101527.97;4917180;29;5392;-60
2022/07/11 03:00:41;;;;;;;;;;;;;;;21.88;48.60;101534.47;4919324;29;4342;-61
2022/07/11 03:03:07;;;;;;;;;;;;;;;21.80;48.79;101527.53;4916182;29;4489;-60
2022/07/11 03:05:34;;;;;;;;;;;;;;;21.78;48.75;101536.09;4917829;29;5496;-60
2022/07/11 03:08:00;;;;;;;;;;;;;;;21.75;48.89;101538.84;4916866;29;4182;-60
2022/07/11 03:10:26;;;;;;;;;;;;;;;21.75;49.19;101538.13;4916538;29;4263;-60
2022/07/11 03:12:53;;;;;;;;;;;;;;;21.82;48.76;101537.03;4917449;29;4439;-60
2022/07/11 03:15:21;;;;;;;;;;;;;;;21.84;48.72;101542.91;4918293;29;4111;-60
2022/07/11 03:17:48;;;;;;;;;;;;;;;21.83;48.64;101544.31;4914427;29;4259;-60
2022/07/11 03:20:14;;;;;;;;;;;;;;;21.79;48.99;101544.09;4915698;29;4279;-60
2022/07/11 03:22:41;;;;;;;;;;;;;;;21.75;48.89;101550.38;4916493;29;5371;-61
2022/07/11 03:25:07;;;;;;;;;;;;;;;21.75;48.95;101547.50;4913293;29;4211;-60
2022/07/11 03:27:34;;;;;;;;;;;;;;;21.74;49.09;101543.16;4917026;29;4206;-60
2022/07/11 03:30:00;;;;;;;;;;;;;;;21.74;48.77;101546.03;4915688;29;5563;-60
2022/07/11 03:32:26;;;;;;;;;;;;;;;21.73;49.19;101541.63;4920852;29;4236;-60
2022/07/11 03:37:40;;;;;;;;;;;;;;;21.73;48.91;101547.41;4917814;29;4275;-60
2022/07/11 03:40:07;;;;;;;;;;;;;;;21.73;49.11;101547.41;4915061;29;4246;-60
2022/07/11 03:42:33;;;;;;;;;;;;;;;21.73;48.98;101546.66;4914468;29;4362;-60
2022/07/11 03:45:00;;;;;;;;;;;;;;;21.71;49.22;101537.91;4911423;29;4183;-60
2022/07/11 03:47:27;;;;;;;;;;;;;;;21.72;49.01;101539.41;4917867;29;4505;-60
2022/07/11 03:49:53;;;;;;;;;;;;;;;21.72;49.01;101545.19;4915478;29;4305;-60
2022/07/11 03:52:20;;;;;;;;;;;;;;;21.71;49.26;101543.66;4909788;29;4305;-61
2022/07/11 03:54:46;;;;;;;;;;;;;;;21.71;49.02;101538.66;4915467;29;4291;-61
2022/07/11 03:57:12;;;;;;;;;;;;;;;21.71;49.18;101538.66;4916654;29;4413;-60
2022/07/11 03:59:39;;;;;;;;;;;;;;;21.78;48.98;101544.72;4917371;29;5286;-60
2022/07/11 04:02:05;;;;;;;;;;;;;;;21.80;48.80;101547.72;4915730;29;5287;-60
2022/07/11 04:04:32;;;;;;;;;;;;;;;21.73;48.92;101540.91;4917817;29;4352;-60
2022/07/11 04:06:58;;;;;;;;;;;;;;;21.71;48.98;101538.66;4912705;29;4903;-60
2022/07/11 04:09:25;;;;;;;;;;;;;;;21.71;48.98;101540.78;4915494;29;4289;-60
2022/07/11 04:11:51;;;;;;;;;;;;;;;21.70;49.05;101548.69;4911561;29;5273;-60
2022/07/11 04:14:18;;;;;;;;;;;;;;;21.69;49.06;101541.44;4914443;29;4332;-60
2022/07/11 04:16:44;;;;;;;;;;;;;;;21.69;49.01;101538.56;4915470;29;5301;-60
2022/07/11 04:19:10;;;;;;;;;;;;;;;21.70;48.97;101536.44;4919279;29;5269;-60
2022/07/11 04:21:37;;;;;;;;;;;;;;;21.69;49.29;101529.91;4917985;29;4297;-60
2022/07/11 04:24:03;;;;;;;;;;;;;;;21.69;48.82;101552.97;4918455;29;4195;-60
2022/07/11 04:26:30;;;;;;;;;;;;;;;21.68;49.20;101545.72;4919448;29;4677;-60
2022/07/11 04:28:56;;;;;;;;;;;;;;;21.69;49.01;101535.69;4917414;29;5511;-60
2022/07/11 04:31:22;;;;;;;;;;;;;;;21.69;49.29;101543.56;4916036;29;4293;-60
2022/07/11 04:33:49;;;;;;;;;;;;;;;21.69;48.97;101541.44;4918358;29;4324;-60
2022/07/11 04:36:15;;;;;;;;;;;;;;;21.70;49.04;101536.44;4921818;29;4334;-60
2022/07/11 04:38:44;;;;;;;;;;;;;;;21.73;49.13;101538.75;4920735;29;4236;-59
2022/07/11 04:41:10;;;;;;;;;;;;;;;21.70;49.14;101542.94;4918544;29;4108;-60
2022/07/11 04:43:37;;;;;;;;;;;;;;;21.70;49.02;101547.97;4912572;29;4184;-60
2022/07/11 04:46:07;;;;;;;;;;;;;;;21.69;49.15;101549.31;4918786;29;4267;-60
2022/07/11 04:48:33;;;;;;;;;;;;;;;21.68;49.31;101545.72;4920784;29;4265;-60
2022/07/11 04:51:00;;;;;;;;;;;;;;;21.67;49.00;101541.34;4918144;29;4277;-60
2022/07/11 04:53:26;;;;;;;;;;;;;;;21.67;49.25;101544.22;4918129;29;4105;-60
2022/07/11 04:55:52;;;;;;;;;;;;;;;21.67;49.05;101544.22;4919003;29;5483;-60
2022/07/11 04:58:19;;;;;;;;;;;;;;;21.64;49.33;101542.59;4918619;29;4262;-59
2022/07/11 05:00:45;;;;;;;;;;;;;;;21.70;49.58;101548.69;4913097;29;4399;-60
2022/07/11 05:03:12;;;;;;;;;;;;;;;21.73;49.39;101558.94;4908796;29;5260;-61
2022/07/11 05:05:38;;;;;;;;;;;;;;;21.90;49.79;101563.41;4920481;29;4256;-67
2022/07/11 05:08:04;;;;;;;;;;;;;;;21.98;49.59;101559.44;4921224;29;4364;-65
2022/07/11 05:10:33;;;;;;;;;;;;;;;22.01;49.00;101564.66;4925685;29;4269;-64
2022/07/11 05:12:59;;;;;;;;;;;;;;;22.03;48.70;101564.75;4920610;29;5345;-63
2022/07/11 05:15:25;;;;;;;;;;;;;;;22.04;48.78;101569.16;4917152;29;4320;-59
2022/07/11 05:17:52;;;;;;;;;;;;;;;22.12;49.62;101572.44;4915498;29;5281;-68
2022/07/11 05:20:18;;;;;;;;;;;;;;;22.23;50.12;101578.75;4920198;29;5340;-69
2022/07/11 05:22:45;;;;;;;;;;;;;;;22.14;49.00;101577.56;4914915;29;5425;-64
2022/07/11 05:25:11;;;;;;;;;;;;;;;21.97;49.15;101573.13;4910767;29;4275;-66
2022/07/11 05:27:37;;;;;;;;;;;;;;;21.93;49.63;101581.56;4917322;29;4312;-68
2022/07/11 05:30:04;;;;;;;;;;;;;;;21.90;49.51;101574.22;4916514;29;4204;-67
2022/07/11 05:32:30;;;;;;;;;;;;;;;21.89;49.66;101575.59;4915499;29;4274;-68
2022/07/11 05:35:03;;;;;;;;;;;;;;;21.89;49.54;101578.47;4910925;29;4403;-67
2022/07/11 05:37:30;;;;;;;;;;;;;;;21.87;49.67;101578.34;4916223;29;4118;-67
2022/07/11 05:39:56;;;;;;;;;;;;;;;21.85;49.78;101576.13;4913744;29;5461;-67
2022/07/11 05:42:30;;;;;;;;;;;;;;;21.85;49.83;101575.38;4920010;29;4196;-67
2022/07/11 05:44:57;;;;;;;;;;;;;;;21.85;49.61;101575.38;4913369;29;5324;-68
2022/07/11 05:47:23;;;;;;;;;;;;;;;21.85;49.67;101579.03;4918882;29;4353;-67
2022/07/11 05:49:50;;;;;;;;;;;;;;;22.30;53.39;101583.44;4911252;29;6228;-64
2022/07/11 05:52:16;;;;;;;;;;;;;;;22.67;52.16;101580.19;4919607;29;4129;-64
2022/07/11 05:54:43;;;;;;;;;;;;;;;22.78;51.21;101585.06;4920224;29;4424;-66
2022/07/11 05:57:09;;;;;;;;;;;;;;;22.90;50.39;101584.91;4921671;29;4453;-67
2022/07/11 05:59:35;;;;;;;;;;;;;;;23.03;49.84;101579.75;4921020;29;5336;-65
2022/07/11 06:02:02;;;;;;;;;;;;;;;23.09;49.29;101577.13;4919373;29;5254;-65
2022/07/11 06:04:29;;;;;;;;;;;;;;;23.01;48.57;101580.38;4921710;29;5253;-67
2022/07/11 06:06:55;;;;;;;;;;;;;;;22.99;48.07;101589.69;4919933;29;4140;-66
2022/07/11 06:09:21;;;;;;;;;;;;;;;22.96;47.82;101588.06;4917412;29;5571;-67
2022/07/11 06:11:49;;;;;;;;;;;;;;;22.88;48.08;101576.13;4917519;29;4406;-65
2022/07/11 06:14:16;;;;;;;;;;;;;;;22.83;48.50;101586.00;4919563;29;4333;-62
2022/07/11 06:16:42;;;;;;;;;;;;;;;22.75;48.82;101580.59;4915633;29;4190;-67
2022/07/11 06:19:09;;;;;;;;;;;;;;;22.88;48.43;101581.16;4919905;29;4273;-70
2022/07/11 06:21:35;;;;;;;;;;;;;;;22.90;48.42;101581.25;4920653;29;4226;-70
2022/07/11 06:24:01;;;;;;;;;;;;;;;22.96;48.48;101576.53;4918354;29;4254;-69
2022/07/11 06:26:28;;;;;;;;;;;;;;;22.82;48.51;101584.53;4919869;29;4213;-70
2022/07/11 06:28:55;;;;;;;;;;;;;;;22.92;48.06;101587.88;4919900;29;4276;-67
2022/07/11 06:31:21;;;;;;;;;;;;;;;22.89;48.46;101586.31;4919327;29;4215;-68
2022/07/11 06:33:54;;;;;;;;;;;;;;;22.82;48.38;101593.19;4919650;29;4307;-67
2022/07/11 06:36:25;;;;;;;;;;;;;;;22.95;48.10;101591.63;4918070;29;4408;-67
2022/07/11 06:38:51;;;;;;;;;;;;;;;22.96;47.92;101588.06;4917989;29;4264;-66
2022/07/11 06:41:18;;;;;;;;;;;;;;;23.13;47.93;101588.88;4920243;29;5309;-63
2022/07/11 06:43:47;;;;;;;;;;;;;;;23.38;47.08;101591.47;4920269;29;4263;-66
2022/07/11 06:46:14;;;;;;;;;;;;;;;23.36;47.03;101594.28;4915232;29;4567;-71
2022/07/11 06:48:41;;;;;;;;;;;;;;;23.20;47.06;101590.63;4919181;29;5293;-65
2022/07/11 06:51:09;;;;;;;;;;;;;;;23.02;48.20;101595.56;4916915;29;5059;-70
2022/07/11 06:53:35;;;;;;;;;;;;;;;23.33;47.73;101595.59;4917935;29;5434;-62
2022/07/11 06:56:01;;;;;;;;;;;;;;;23.27;48.02;101592.41;4916730;29;4232;-62
2022/07/11 06:58:31;;;;;;;;;;;;;;;23.25;47.83;101589.44;4919737;29;4369;-67
2022/07/11 07:01:01;;;;;;;;;;;;;;;23.44;47.35;101593.16;4916084;29;4330;-62
2022/07/11 07:03:28;;;;;;;;;;;;;;;23.28;47.39;101593.91;4916057;29;5273;-60
2022/07/11 07:05:55;;;;;;;;;;;;;;;23.15;47.59;101598.38;4914665;29;4233;-63
2022/07/11 07:08:24;;;;;;;;;;;;;;;23.23;47.75;101586.47;4919154;29;4116;-64
2022/07/11 07:10:51;;;;;;;;;;;;;;;23.28;47.84;101588.13;4915242;29;4157;-61
2022/07/11 07:13:18;;;;;;;;;;;;;;;23.35;47.48;101595.69;4913147;29;4100;-65
2022/07/11 07:15:45;;;;;;;;;;;;;;;23.27;47.22;101595.28;4915019;29;4243;-65
2022/07/11 07:18:12;;;;;;;;;;;;;;;23.41;47.53;101604.63;4914342;29;4192;-64
2022/07/11 07:20:38;;;;;;;;;;;;;;;23.23;47.52;101603.78;4915346;29;4259;-63
2022/07/11 07:23:04;;;;;;;;;;;;;;;23.27;47.29;101601.06;4916594;29;4211;-63
2022/07/11 07:25:31;;;;;;;;;;;;;;;23.25;47.66;101597.34;4918104;29;4298;-62
2022/07/11 07:27:57;;;;;;;;;;;;;;;23.44;47.52;101617.03;4921098;29;4313;-65
2022/07/11 07:30:25;;;;;;;;;;;;;;;23.34;47.25;101607.88;4919680;29;4284;-64
2022/07/11 07:32:51;;;;;;;;;;;;;;;23.37;47.30;101606.59;4914089;29;4401;-63
2022/07/11 07:35:17;;;;;;;;;;;;;;;23.56;46.78;101608.16;4921825;29;5291;-62
2022/07/11 07:37:44;;;;;;;;;;;;;;;23.41;47.37;101613.31;4924263;29;5299;-63
2022/07/11 07:40:10;;;;;;;;;;;;;;;23.57;46.93;101609.66;4919071;29;4296;-65
2022/07/11 07:42:36;;;;;;;;;;;;;;;23.59;46.97;101613.41;4917743;29;4280;-64
2022/07/11 07:45:10;;;;;;;;;;;;;;;23.63;46.76;101610.66;4917324;29;4370;-64
2022/07/11 07:47:37;;;;;;;;;;;;;;;23.65;46.85;101612.91;4920456;29;4255;-64
2022/07/11 07:50:04;;;;;;;;;;;;;;;23.52;47.14;101607.97;4919159;29;5382;-66
2022/07/11 07:52:30;;;;;;;;;;;;;;;23.59;47.01;101609.75;4922617;29;4253;-64
2022/07/11 07:54:57;;;;;;;;;;;;;;;23.45;47.32;101614.88;4912405;29;5360;-74
2022/07/11 07:57:23;;;;;;;;;;;;;;;23.30;47.34;101608.47;4917628;29;4310;-64
2022/07/11 07:59:49;;;;;;;;;;;;;;;23.30;47.44;101614.22;4915399;29;5362;-69
2022/07/11 08:02:16;;;;;;;;;;;;;;;23.30;47.81;101614.22;4920312;29;4304;-66
2022/07/11 08:04:42;;;;;;;;;;;;;;;23.53;47.65;101613.09;4918686;29;5356;-66
2022/07/11 08:07:09;;;;;;;;;;;;;;;23.48;47.00;101610.69;4919246;29;5311;-69
2022/07/11 08:09:35;;;;;;;;;;;;;;;23.29;47.44;101609.84;4921108;29;4221;-64
2022/07/11 08:12:02;;;;;;;;;;;;;;;23.38;46.67;101613.84;4915546;29;4228;-69
2022/07/11 08:14:31;;;;;;;;;;;;;;;22.96;47.73;101622.75;4920683;29;5312;-68
2022/07/11 08:16:57;;;;;;;;;;;;;;;22.99;47.63;101621.47;4916554;29;4191;-69
2022/07/11 08:19:23;;;;;;;;;;;;;;;23.05;47.42;101614.50;4920265;29;4282;-70
2022/07/11 08:21:50;;;;;;;;;;;;;;;23.09;47.24;101617.56;4921510;29;4337;-70
2022/07/11 08:24:16;;;;;;;;;;;;;;;22.98;47.30;101614.19;4923690;29;5480;-64
2022/07/11 08:26:43;;;;;;;;;;;;;;;23.12;47.13;101610.50;4919977;29;4236;-66
2022/07/11 08:29:09;;;;;;;;;;;;;;;23.15;46.91;101609.19;4921159;29;4287;-67
2022/07/11 08:31:36;;;;;;;;;;;;;;;23.15;46.74;101615.72;4913976;29;4248;-66
2022/07/11 08:34:03;;;;;;;;;;;;;;;23.07;47.21;101612.44;4919609;29;4207;-68
2022/07/11 08:36:30;;;;;;;;;;;;;;;23.05;47.13;101612.34;4919902;29;3996;-68
2022/07/11 08:38:57;;;;;;;;;;;;;;;23.01;47.51;101606.38;4920541;29;4237;-69
2022/07/11 08:41:24;;;;;;;;;;;;;;;23.03;47.19;101608.63;4923552;29;4624;-68
2022/07/11 08:43:50;;;;;;;;;;;;;;;22.93;47.51;101611.72;4915810;29;5289;-67
2022/07/11 08:46:17;;;;;;;;;;;;;;;22.82;47.58;101612.66;4919331;29;5361;-65
2022/07/11 08:48:43;;;;;;;;;;;;;;;22.76;47.87;101616.72;4919282;29;4200;-65
2022/07/11 08:51:10;;;;;;;;;;;;;;;22.72;47.79;101615.78;4918798;29;4313;-66
2022/07/11 08:53:37;;;;;;;;;;;;;;;22.67;47.66;101614.84;4921232;29;5109;-66
2022/07/11 08:56:04;;;;;;;;;;;;;;;22.41;47.67;101608.53;4920949;29;5395;-65
2022/07/11 08:58:31;;;;;;;;;;;;;;;22.41;47.79;101608.53;4902128;29;4165;-65
2022/07/11 09:00:58;;;;;;;;;;;;;;;22.49;47.92;101605.28;4914901;29;4053;-65
2022/07/11 09:03:24;;;;;;;;;;;;;;;22.49;47.91;101611.78;4899561;29;4000;-65
2022/07/11 09:05:50;;;;;;;;;;;;;;;22.54;47.75;101612.75;4900240;29;3953;-62
2022/07/11 09:08:17;;;;;;;;;;;;;;;22.51;47.78;101603.25;4918034;29;4171;-62
2022/07/11 09:10:43;;;;;;;;;;;;;;;22.49;48.04;101611.78;4915237;29;4205;-63
2022/07/11 09:13:10;;;;;;;;;;;;;;;22.51;47.74;101617.69;4900410;29;4022;-63
2022/07/11 09:15:38;;;;;;;;;;;;;;;22.49;47.80;101623.34;4914017;29;4328;-62
2022/07/11 09:18:23;;;;;;;;;;;;;;;22.46;47.96;101618.13;4911591;29;4048;-62
2022/07/11 09:26:23;;;;;;;;;;;;;;;22.45;48.09;101605.84;4916020;29;4584;-64
2022/07/11 09:29:01;;;;;;;;;;;;;;;22.45;48.10;101614.50;4914554;29;4282;-66
2022/07/11 09:31:29;;;;;;;;;;;;;;;22.42;48.07;101612.16;4914540;29;5340;-70
2022/07/11 09:33:59;;;;;;;;;;;;;;;22.57;48.25;101606.44;4914128;29;5331;-68
2022/07/11 09:36:32;;;;;;;;;;;;;;;22.63;48.02;101614.66;4918043;29;4081;-63
2022/07/11 09:38:59;;;;;;;;;;;;;;;22.51;48.22;101603.25;4915698;29;4692;-63
2022/07/11 09:41:25;;;;;;;;;;;;;;;22.54;48.73;101612.75;4900399;29;5622;-63
2022/07/11 09:43:51;;;;;;;;;;;;;;;22.65;48.16;101611.09;4907088;29;4376;-64
2022/07/11 09:46:24;;;;;;;;;;;;;;;22.73;47.69;101614.41;4909410;29;4375;-66
2022/07/11 09:48:50;;;;;;;;;;;;;;;22.75;47.90;101611.63;4911302;29;4167;-66
2022/07/11 09:51:20;;;;;;;;;;;;;;;22.76;48.04;101616.00;4919912;29;4247;-63
2022/07/11 09:53:53;;;;;;;;;;;;;;;22.72;48.43;101607.88;4915953;29;5523;-63
2022/07/11 09:56:23;;;;;;;;;;;;;;;22.94;47.83;101607.47;4919845;29;4284;-62
2022/07/11 09:59:10;;;;;;;;;;;;;;;23.08;47.48;101605.25;4912831;29;4217;-63
2022/07/11 10:01:37;;;;;;;;;;;;;;;23.07;47.71;101603.78;4917611;29;4285;-64
2022/07/11 10:04:06;;;;;;;;;;;;;;;23.10;47.38;101602.47;4916481;29;4302;-62
2022/07/11 10:06:42;;;;;;;;;;;;;;;22.97;47.72;101601.13;4918867;29;4312;-63
2022/07/11 10:09:09;;;;;;;;;;;;;;;23.15;47.09;101609.19;4915189;29;5313;-64
2022/07/11 10:11:35;;;;;;;;;;;;;;;23.19;47.01;101607.22;4913067;29;4333;-65
2022/07/11 10:14:03;;;;;;;;;;;;;;;23.23;47.14;101614.59;4916793;29;4357;-67
2022/07/11 10:16:40;;;;;;;;;;;;;;;23.35;47.27;101604.34;4913709;29;4232;-69
2022/07/11 10:19:26;;;;;;;;;;;;;;;23.31;47.00;101603.41;4901970;29;4125;-61
2022/07/11 10:22:16;;;;;;;;;;;;;;;23.31;47.17;101612.81;4914239;29;4163;-60
2022/07/11 10:24:52;;;;;;;;;;;;;;;23.29;47.08;101612.72;4900565;29;4363;-63
2022/07/11 10:27:24;;;;;;;;;;;;;;;23.53;47.38;101612.38;4899689;29;4191;-68
2022/07/11 10:29:51;;;;;;;;;;;;;;;23.38;47.17;101610.97;4916171;29;4338;-67
2022/07/11 10:32:19;;;;;;;;;;;;;;;23.45;47.31;101617.78;4900473;29;4220;-67
2022/07/11 10:34:47;;;;;;;;;;;;;;;23.40;47.08;101611.81;4898489;29;4545;-69
2022/07/11 10:37:13;;;;;;;;;;;;;;;23.36;47.30;101617.38;4913657;29;4297;-69
2022/07/11 10:39:46;;;;;;;;;;;;;;;23.34;47.43;101613.66;4912864;29;4660;-68
2022/07/11 10:42:21;;;;;;;;;;;;;;;23.28;47.51;101611.25;4908754;29;4628;-67
2022/07/11 10:44:48;;;;;;;;;;;;;;;23.19;47.70;101606.50;4927264;29;4259;-68
2022/07/11 10:47:36;;;;;;;;;;;;;;;23.33;46.88;101607.16;4922396;29;4274;-66
2022/07/11 10:50:07;;;;;;;;;;;;;;;23.50;47.08;101613.66;4922030;29;4243;-66
2022/07/11 10:52:36;;;;;;;;;;;;;;;23.42;46.58;101608.25;4921218;29;4367;-67
2022/07/11 10:55:26;;;;;;;;;;;;;;;23.33;47.05;101607.16;4922601;29;5404;-70
2022/07/11 10:58:06;;;;;;;;;;;;;;;23.18;46.86;101602.09;4902558;29;4906;-65
2022/07/11 11:00:33;;;;;;;;;;;;;;;23.26;46.81;101595.97;4923295;29;4200;-64
2022/07/11 11:02:59;;;;;;;;;;;;;;;23.30;47.19;101599.78;4925534;29;4202;-68
2022/07/11 11:05:47;;;;;;;;;;;;;;;23.25;47.34;101595.22;4924767;29;4309;-67
2022/07/11 11:08:35;;;;;;;;;;;;;;;23.34;46.71;101591.31;4922053;29;4316;-66
2022/07/11 11:11:05;;;;;;;;;;;;;;;23.31;47.36;101592.59;4922338;29;5328;-68
2022/07/11 11:13:35;;;;;;;;;;;;;;;23.28;47.62;101599.69;4923376;29;4278;-68
2022/07/11 11:16:02;;;;;;;;;;;;;;;23.37;46.73;101598.66;4921825;29;4073;-64
2022/07/11 11:18:28;;;;;;;;;;;;;;;23.11;47.24;101591.66;4922535;29;4065;-64
2022/07/11 11:21:07;;;;;;;;;;;;;;;23.46;46.73;101590.38;4919414;29;4234;-60
2022/07/11 11:23:34;;;;;;;;;;;;;;;23.50;46.59;101593.44;4922350;29;4096;-64
2022/07/11 11:26:04;;;;;;;;;;;;;;;23.30;47.29;101588.22;4923625;29;5674;-67
2022/07/11 11:28:30;;;;;;;;;;;;;;;23.31;47.50;101600.53;4919623;29;4113;-66
2022/07/11 11:30:57;;;;;;;;;;;;;;;23.34;47.40;101591.31;4922286;29;4226;-66
2022/07/11 11:33:27;;;;;;;;;;;;;;;23.36;47.01;101599.31;4917355;29;4267;-62
2022/07/11 11:36:03;;;;;;;;;;;;;;;23.39;46.94;101592.25;4918255;29;4277;-63
2022/07/11 11:38:32;;;;;;;;;;;;;;;23.37;47.35;101584.22;4918060;29;4489;-67
2022/07/11 11:40:58;;;;;;;;;;;;;;;23.07;47.35;101583.56;4914712;29;4305;-68
2022/07/11 11:43:27;;;;;;;;;;;;;;;23.10;48.18;101584.41;4914168;29;4203;-64
2022/07/11 11:45:54;;;;;;;;;;;;;;;23.17;47.50;101577.50;4915045;29;4211;-66
2022/07/11 11:48:33;;;;;;;;;;;;;;;23.16;46.77;101584.69;4917062;29;4286;-68
2022/07/11 11:51:19;;;;;;;;;;;;;;;23.20;46.46;101576.97;4915582;29;4195;-68
2022/07/11 11:53:47;;;;;;;;;;;;;;;23.00;45.96;101584.69;4916862;29;4411;-73
2022/07/11 11:56:18;;;;;;;;;;;;;;;23.03;45.91;101574.69;4916830;29;4288;-73
2022/07/11 11:58:44;;;;;;;;;;;;;;;22.99;46.49;101575.25;4904739;29;4523;-70
2022/07/11 12:01:11;;;;;;;;;;;;;;;23.12;45.43;101588.13;4914524;29;4231;-74
2022/07/11 12:03:47;;;;;;;;;;;;;;;23.15;45.13;101591.84;4910425;29;4290;-68
2022/07/11 12:06:14;;;;;;;;;;;;;;;23.16;44.99;101579.66;4915669;29;5752;-68
2022/07/11 12:08:40;;;;;;;;;;;;;;;23.19;44.78;101581.22;4914626;29;5772;-68
2022/07/11 12:11:11;;;;;;;;;;;;;;;23.20;45.22;101581.97;4917798;29;5289;-67
2022/07/11 12:13:37;;;;;;;;;;;;;;;23.13;44.69;101571.53;4911651;29;4257;-64
2022/07/11 12:18:56;;;;;;;;;;;;;;;23.13;45.19;101571.53;4915917;29;5249;-72
2022/07/11 12:21:22;;;;;;;;;;;;;;;23.19;44.50;101566.03;4915222;29;4203;-76
2022/07/11 12:23:49;;;;;;;;;;;;;;;23.15;44.00;101568.75;4917697;29;5347;-74
2022/07/11 12:26:15;;;;;;;;;;;;;;;23.18;43.86;101567.44;4920397;29;4304;-76
2022/07/11 12:29:00;;;;;;;;;;;;;;;23.22;44.28;101564.72;4914322;29;4383;-76
2022/07/11 12:31:41;;;;;;;;;;;;;;;23.24;44.40;101561.94;4915640;29;5363;-71
2022/07/11 12:34:08;;;;;;;;;;;;;;;23.16;45.04;101564.47;4913502;29;5174;-73
2022/07/11 12:36:34;;;;;;;;;;;;;;;23.26;45.22;101561.28;4918799;29;4248;-73
2022/07/11 12:39:00;;;;;;;;;;;;;;;23.33;44.45;101560.91;4918209;29;4252;-77
2022/07/11 12:41:28;;;;;;;;;;;;;;;23.27;44.32;101554.09;4919182;29;4250;-72
2022/07/11 12:46:40;;;;;;;;;;;;;;;23.26;44.36;101552.63;4915980;29;4362;-74
2022/07/11 12:49:07;;;;;;;;;;;;;;;23.24;44.68;101555.41;4920924;29;5281;-74
2022/07/11 12:51:39;;;;;;;;;;;;;;;23.34;44.71;101556.63;4918730;29;4293;-72
2022/07/11 12:54:13;;;;;;;;;;;;;;;23.19;45.01;101551.59;4916678;29;4240;-76
2022/07/11 12:56:39;;;;;;;;;;;;;;;23.12;44.70;101559.22;4921935;29;5511;-76
2022/07/11 12:59:05;;;;;;;;;;;;;;;23.14;45.62;101558.59;4915450;29;4033;-78
2022/07/11 13:01:36;;;;;;;;;;;;;;;23.35;45.53;101549.44;4919658;29;4253;-75
2022/07/11 13:04:03;;;;;;;;;;;;;;;23.32;44.52;101541.31;4921394;29;4198;-72
2022/07/11 13:09:15;;;;;;;;;;;;;;;23.42;43.94;101556.97;4919369;29;4254;-73